sensor_id;sensor_type;location;lat;lon;timestamp;P1;durP1;ratioP1;P2;durP2;ratioP2
52742;SDS011;55583;53.012;6.556;2023-05-10T00:02:08;56.75;;;19.85;;
52742;SDS011;55583;53.012;6.556;2023-05-10T00:04:34;35.80;;;17.27;;
52742;SDS011;55583;53.012;6.556;2023-05-10T00:07:00;31.38;;;16.58;;
52742;SDS011;55583;53.012;6.556;2023-05-10T00:09:25;28.95;;;15.80;;
52742;SDS011;55583;53.012;6.556;2023-05-10T00:11:51;30.33;;;16.90;;
52742;SDS011;55583;53.012;6.556;2023-05-10T00:14:16;32.53;;;17.75;;
52742;SDS011;55583;53.012;6.556;2023-05-10T00:16:42;40.17;;;18.10;;
52742;SDS011;55583;53.012;6.556;2023-05-10T00:19:08;34.13;;;17.33;;
52742;SDS011;55583;53.012;6.556;2023-05-10T00:21:33;44.72;;;18.98;;
52742;SDS011;55583;53.012;6.556;2023-05-10T00:23:59;48.50;;;19.42;;
52742;SDS011;55583;53.012;6.556;2023-05-10T00:26:25;43.80;;;19.27;;
52742;SDS011;55583;53.012;6.556;2023-05-10T00:28:51;37.22;;;17.15;;
52742;SDS011;55583;53.012;6.556;2023-05-10T00:31:16;45.95;;;18.92;;
52742;SDS011;55583;53.012;6.556;2023-05-10T00:33:42;36.90;;;17.50;;
52742;SDS011;55583;53.012;6.556;2023-05-10T00:36:08;52.17;;;20.10;;
52742;SDS011;55583;53.012;6.556;2023-05-10T00:38:33;31.67;;;16.05;;
52742;SDS011;55583;53.012;6.556;2023-05-10T00:40:59;49.00;;;19.17;;
52742;SDS011;55583;53.012;6.556;2023-05-10T00:43:25;27.70;;;15.43;;
52742;SDS011;55583;53.012;6.556;2023-05-10T00:45:50;47.28;;;17.98;;
52742;SDS011;55583;53.012;6.556;2023-05-10T00:48:17;29.45;;;14.75;;
52742;SDS011;55583;53.012;6.556;2023-05-10T00:50:42;30.33;;;15.63;;
52742;SDS011;55583;53.012;6.556;2023-05-10T00:53:08;27.83;;;15.23;;
52742;SDS011;55583;53.012;6.556;2023-05-10T00:55:35;30.00;;;15.20;;
52742;SDS011;55583;53.012;6.556;2023-05-10T00:58:01;26.20;;;15.48;;
52742;SDS011;55583;53.012;6.556;2023-05-10T01:00:27;39.80;;;17.60;;
52742;SDS011;55583;53.012;6.556;2023-05-10T01:02:53;26.75;;;14.38;;
52742;SDS011;55583;53.012;6.556;2023-05-10T01:05:19;33.70;;;15.70;;
52742;SDS011;55583;53.012;6.556;2023-05-10T01:07:45;26.95;;;14.38;;
52742;SDS011;55583;53.012;6.556;2023-05-10T01:10:11;32.08;;;15.30;;
52742;SDS011;55583;53.012;6.556;2023-05-10T01:12:37;27.27;;;13.95;;
52742;SDS011;55583;53.012;6.556;2023-05-10T01:15:05;28.30;;;14.20;;
52742;SDS011;55583;53.012;6.556;2023-05-10T01:17:32;37.80;;;15.13;;
52742;SDS011;55583;53.012;6.556;2023-05-10T01:20:00;31.90;;;15.35;;
52742;SDS011;55583;53.012;6.556;2023-05-10T01:22:39;30.17;;;14.60;;
52742;SDS011;55583;53.012;6.556;2023-05-10T01:33:43;30.27;;;14.93;;
52742;SDS011;55583;53.012;6.556;2023-05-10T01:36:16;27.95;;;14.50;;
52742;SDS011;55583;53.012;6.556;2023-05-10T01:39:11;28.58;;;13.95;;
52742;SDS011;55583;53.012;6.556;2023-05-10T01:41:57;37.92;;;17.30;;
52742;SDS011;55583;53.012;6.556;2023-05-10T01:44:38;39.80;;;17.33;;
52742;SDS011;55583;53.012;6.556;2023-05-10T01:47:17;44.45;;;18.60;;
52742;SDS011;55583;53.012;6.556;2023-05-10T01:49:50;38.38;;;17.10;;
52742;SDS011;55583;53.012;6.556;2023-05-10T01:52:22;53.78;;;20.85;;
52742;SDS011;55583;53.012;6.556;2023-05-10T01:54:55;34.17;;;17.30;;
52742;SDS011;55583;53.012;6.556;2023-05-10T01:57:26;39.53;;;17.95;;
52742;SDS011;55583;53.012;6.556;2023-05-10T01:59:56;39.45;;;17.40;;
52742;SDS011;55583;53.012;6.556;2023-05-10T02:02:24;44.80;;;18.33;;
52742;SDS011;55583;53.012;6.556;2023-05-10T02:04:51;40.42;;;18.83;;
52742;SDS011;55583;53.012;6.556;2023-05-10T02:07:20;37.72;;;18.10;;
52742;SDS011;55583;53.012;6.556;2023-05-10T02:09:48;37.17;;;17.92;;
52742;SDS011;55583;53.012;6.556;2023-05-10T02:12:14;36.92;;;16.55;;
52742;SDS011;55583;53.012;6.556;2023-05-10T02:14:41;37.90;;;17.63;;
52742;SDS011;55583;53.012;6.556;2023-05-10T02:17:07;40.35;;;19.30;;
52742;SDS011;55583;53.012;6.556;2023-05-10T02:19:35;38.72;;;18.40;;
52742;SDS011;55583;53.012;6.556;2023-05-10T02:22:03;40.10;;;19.70;;
52742;SDS011;55583;53.012;6.556;2023-05-10T02:24:30;39.25;;;16.58;;
52742;SDS011;55583;53.012;6.556;2023-05-10T02:26:58;35.25;;;19.52;;
52742;SDS011;55583;53.012;6.556;2023-05-10T02:29:25;38.17;;;17.80;;
52742;SDS011;55583;53.012;6.556;2023-05-10T02:31:53;44.17;;;19.98;;
52742;SDS011;55583;53.012;6.556;2023-05-10T02:34:24;50.80;;;21.38;;
52742;SDS011;55583;53.012;6.556;2023-05-10T02:36:52;40.10;;;17.67;;
52742;SDS011;55583;53.012;6.556;2023-05-10T02:39:18;43.85;;;18.48;;
52742;SDS011;55583;53.012;6.556;2023-05-10T02:41:46;41.25;;;18.85;;
52742;SDS011;55583;53.012;6.556;2023-05-10T02:44:14;41.88;;;19.67;;
52742;SDS011;55583;53.012;6.556;2023-05-10T02:46:42;49.92;;;22.10;;
52742;SDS011;55583;53.012;6.556;2023-05-10T02:49:08;48.70;;;20.88;;
52742;SDS011;55583;53.012;6.556;2023-05-10T02:51:35;49.42;;;21.55;;
52742;SDS011;55583;53.012;6.556;2023-05-10T02:54:06;46.30;;;21.45;;
52742;SDS011;55583;53.012;6.556;2023-05-10T02:56:36;46.70;;;21.58;;
52742;SDS011;55583;53.012;6.556;2023-05-10T02:59:05;43.35;;;21.55;;
52742;SDS011;55583;53.012;6.556;2023-05-10T03:01:31;42.70;;;19.67;;
52742;SDS011;55583;53.012;6.556;2023-05-10T03:03:57;50.00;;;21.27;;
52742;SDS011;55583;53.012;6.556;2023-05-10T03:06:23;54.03;;;24.10;;
52742;SDS011;55583;53.012;6.556;2023-05-10T03:08:48;42.78;;;20.17;;
52742;SDS011;55583;53.012;6.556;2023-05-10T03:14:03;50.40;;;21.80;;
52742;SDS011;55583;53.012;6.556;2023-05-10T03:16:42;46.78;;;21.23;;
52742;SDS011;55583;53.012;6.556;2023-05-10T03:21:49;44.95;;;21.38;;
52742;SDS011;55583;53.012;6.556;2023-05-10T03:24:16;53.85;;;21.65;;
52742;SDS011;55583;53.012;6.556;2023-05-10T03:26:45;49.85;;;22.00;;
52742;SDS011;55583;53.012;6.556;2023-05-10T03:29:11;47.38;;;20.83;;
52742;SDS011;55583;53.012;6.556;2023-05-10T03:31:39;55.10;;;21.90;;
52742;SDS011;55583;53.012;6.556;2023-05-10T03:34:05;42.53;;;20.90;;
52742;SDS011;55583;53.012;6.556;2023-05-10T03:36:31;43.63;;;21.90;;
52742;SDS011;55583;53.012;6.556;2023-05-10T03:38:56;49.67;;;20.65;;
52742;SDS011;55583;53.012;6.556;2023-05-10T03:41:22;47.10;;;21.40;;
52742;SDS011;55583;53.012;6.556;2023-05-10T03:43:48;41.03;;;20.65;;
52742;SDS011;55583;53.012;6.556;2023-05-10T03:46:13;43.10;;;21.50;;
52742;SDS011;55583;53.012;6.556;2023-05-10T03:48:39;48.30;;;21.65;;
52742;SDS011;55583;53.012;6.556;2023-05-10T03:51:05;46.53;;;20.67;;
52742;SDS011;55583;53.012;6.556;2023-05-10T03:53:30;43.50;;;20.58;;
52742;SDS011;55583;53.012;6.556;2023-05-10T03:55:56;39.13;;;19.83;;
52742;SDS011;55583;53.012;6.556;2023-05-10T03:58:22;36.03;;;17.27;;
52742;SDS011;55583;53.012;6.556;2023-05-10T04:00:47;43.42;;;19.63;;
52742;SDS011;55583;53.012;6.556;2023-05-10T04:03:13;29.48;;;16.30;;
52742;SDS011;55583;53.012;6.556;2023-05-10T04:05:39;33.90;;;16.95;;
52742;SDS011;55583;53.012;6.556;2023-05-10T04:08:05;35.75;;;17.80;;
52742;SDS011;55583;53.012;6.556;2023-05-10T04:10:30;29.83;;;15.90;;
52742;SDS011;55583;53.012;6.556;2023-05-10T04:12:56;31.88;;;15.25;;
52742;SDS011;55583;53.012;6.556;2023-05-10T04:15:22;33.67;;;17.55;;
52742;SDS011;55583;53.012;6.556;2023-05-10T04:17:47;26.42;;;15.45;;
52742;SDS011;55583;53.012;6.556;2023-05-10T04:20:13;25.40;;;15.45;;
52742;SDS011;55583;53.012;6.556;2023-05-10T04:22:39;24.73;;;14.38;;
52742;SDS011;55583;53.012;6.556;2023-05-10T04:25:05;27.45;;;15.07;;
52742;SDS011;55583;53.012;6.556;2023-05-10T04:27:32;27.60;;;15.95;;
52742;SDS011;55583;53.012;6.556;2023-05-10T04:29:57;26.13;;;13.88;;
52742;SDS011;55583;53.012;6.556;2023-05-10T04:32:26;25.40;;;14.13;;
52742;SDS011;55583;53.012;6.556;2023-05-10T04:34:52;24.08;;;13.50;;
52742;SDS011;55583;53.012;6.556;2023-05-10T04:37:18;22.13;;;13.38;;
52742;SDS011;55583;53.012;6.556;2023-05-10T04:39:43;24.67;;;13.90;;
52742;SDS011;55583;53.012;6.556;2023-05-10T04:42:09;21.88;;;14.45;;
52742;SDS011;55583;53.012;6.556;2023-05-10T04:44:35;26.58;;;14.77;;
52742;SDS011;55583;53.012;6.556;2023-05-10T04:47:01;21.90;;;13.02;;
52742;SDS011;55583;53.012;6.556;2023-05-10T04:49:27;23.73;;;14.90;;
52742;SDS011;55583;53.012;6.556;2023-05-10T04:51:53;28.67;;;15.20;;
52742;SDS011;55583;53.012;6.556;2023-05-10T04:54:18;22.38;;;14.50;;
52742;SDS011;55583;53.012;6.556;2023-05-10T04:56:44;18.17;;;11.73;;
52742;SDS011;55583;53.012;6.556;2023-05-10T04:59:10;24.17;;;14.57;;
52742;SDS011;55583;53.012;6.556;2023-05-10T05:01:36;18.02;;;12.18;;
52742;SDS011;55583;53.012;6.556;2023-05-10T05:04:01;17.73;;;12.63;;
52742;SDS011;55583;53.012;6.556;2023-05-10T05:06:27;20.77;;;12.20;;
52742;SDS011;55583;53.012;6.556;2023-05-10T05:08:52;24.77;;;13.38;;
52742;SDS011;55583;53.012;6.556;2023-05-10T05:11:18;21.58;;;12.55;;
52742;SDS011;55583;53.012;6.556;2023-05-10T05:13:44;19.48;;;12.15;;
52742;SDS011;55583;53.012;6.556;2023-05-10T05:16:10;16.52;;;11.70;;
52742;SDS011;55583;53.012;6.556;2023-05-10T05:18:38;18.58;;;12.02;;
52742;SDS011;55583;53.012;6.556;2023-05-10T05:21:13;15.20;;;10.98;;
52742;SDS011;55583;53.012;6.556;2023-05-10T05:23:42;12.98;;;9.75;;
52742;SDS011;55583;53.012;6.556;2023-05-10T05:26:08;17.52;;;11.77;;
52742;SDS011;55583;53.012;6.556;2023-05-10T05:28:34;17.65;;;11.35;;
52742;SDS011;55583;53.012;6.556;2023-05-10T05:31:02;15.50;;;10.45;;
52742;SDS011;55583;53.012;6.556;2023-05-10T05:33:29;14.90;;;10.40;;
52742;SDS011;55583;53.012;6.556;2023-05-10T05:35:54;14.85;;;11.02;;
52742;SDS011;55583;53.012;6.556;2023-05-10T05:38:20;19.10;;;11.52;;
52742;SDS011;55583;53.012;6.556;2023-05-10T05:40:46;16.50;;;10.88;;
52742;SDS011;55583;53.012;6.556;2023-05-10T05:43:11;17.20;;;11.38;;
52742;SDS011;55583;53.012;6.556;2023-05-10T05:45:37;21.27;;;12.45;;
52742;SDS011;55583;53.012;6.556;2023-05-10T05:48:03;16.50;;;10.20;;
52742;SDS011;55583;53.012;6.556;2023-05-10T05:50:29;17.55;;;10.73;;
52742;SDS011;55583;53.012;6.556;2023-05-10T05:52:54;16.55;;;11.48;;
52742;SDS011;55583;53.012;6.556;2023-05-10T05:55:21;16.67;;;10.88;;
52742;SDS011;55583;53.012;6.556;2023-05-10T05:57:47;16.73;;;10.73;;
52742;SDS011;55583;53.012;6.556;2023-05-10T06:00:12;16.90;;;10.23;;
52742;SDS011;55583;53.012;6.556;2023-05-10T06:02:38;14.10;;;9.60;;
52742;SDS011;55583;53.012;6.556;2023-05-10T06:05:04;10.07;;;7.47;;
52742;SDS011;55583;53.012;6.556;2023-05-10T06:07:30;11.73;;;8.25;;
52742;SDS011;55583;53.012;6.556;2023-05-10T06:09:56;14.10;;;8.43;;
52742;SDS011;55583;53.012;6.556;2023-05-10T06:12:21;10.05;;;7.50;;
52742;SDS011;55583;53.012;6.556;2023-05-10T06:14:47;12.10;;;8.00;;
52742;SDS011;55583;53.012;6.556;2023-05-10T06:17:12;13.80;;;8.18;;
52742;SDS011;55583;53.012;6.556;2023-05-10T06:19:38;12.75;;;7.32;;
52742;SDS011;55583;53.012;6.556;2023-05-10T06:22:03;11.93;;;7.45;;
52742;SDS011;55583;53.012;6.556;2023-05-10T06:24:29;11.38;;;7.43;;
52742;SDS011;55583;53.012;6.556;2023-05-10T06:26:55;7.75;;;6.28;;
52742;SDS011;55583;53.012;6.556;2023-05-10T06:29:20;10.02;;;6.95;;
52742;SDS011;55583;53.012;6.556;2023-05-10T06:31:46;6.18;;;4.85;;
52742;SDS011;55583;53.012;6.556;2023-05-10T06:34:12;7.30;;;4.72;;
52742;SDS011;55583;53.012;6.556;2023-05-10T06:36:38;5.05;;;3.75;;
52742;SDS011;55583;53.012;6.556;2023-05-10T06:39:04;7.65;;;3.15;;
52742;SDS011;55583;53.012;6.556;2023-05-10T06:41:30;4.00;;;2.97;;
52742;SDS011;55583;53.012;6.556;2023-05-10T06:43:56;2.58;;;2.38;;
52742;SDS011;55583;53.012;6.556;2023-05-10T06:46:21;3.30;;;2.20;;
52742;SDS011;55583;53.012;6.556;2023-05-10T06:48:47;2.10;;;1.90;;
52742;SDS011;55583;53.012;6.556;2023-05-10T06:51:12;2.30;;;2.10;;
52742;SDS011;55583;53.012;6.556;2023-05-10T06:53:38;1.98;;;1.70;;
52742;SDS011;55583;53.012;6.556;2023-05-10T06:56:04;1.65;;;1.42;;
52742;SDS011;55583;53.012;6.556;2023-05-10T06:58:30;2.78;;;1.50;;
52742;SDS011;55583;53.012;6.556;2023-05-10T07:01:04;1.80;;;1.48;;
52742;SDS011;55583;53.012;6.556;2023-05-10T07:03:30;1.42;;;1.17;;
52742;SDS011;55583;53.012;6.556;2023-05-10T07:06:00;1.20;;;0.98;;
52742;SDS011;55583;53.012;6.556;2023-05-10T07:08:32;0.63;;;0.63;;
52742;SDS011;55583;53.012;6.556;2023-05-10T07:13:32;0.40;;;0.40;;
52742;SDS011;55583;53.012;6.556;2023-05-10T07:15:58;0.55;;;0.47;;
52742;SDS011;55583;53.012;6.556;2023-05-10T07:18:25;0.68;;;0.45;;
52742;SDS011;55583;53.012;6.556;2023-05-10T07:20:51;0.45;;;0.43;;
52742;SDS011;55583;53.012;6.556;2023-05-10T07:23:17;0.35;;;0.35;;
52742;SDS011;55583;53.012;6.556;2023-05-10T07:25:44;0.43;;;0.40;;
52742;SDS011;55583;53.012;6.556;2023-05-10T07:28:14;1.38;;;0.50;;
52742;SDS011;55583;53.012;6.556;2023-05-10T07:30:41;0.70;;;0.70;;
52742;SDS011;55583;53.012;6.556;2023-05-10T07:33:08;2.47;;;0.60;;
52742;SDS011;55583;53.012;6.556;2023-05-10T07:35:34;0.65;;;0.50;;
52742;SDS011;55583;53.012;6.556;2023-05-10T07:38:00;0.93;;;0.88;;
52742;SDS011;55583;53.012;6.556;2023-05-10T07:40:26;1.20;;;1.10;;
52742;SDS011;55583;53.012;6.556;2023-05-10T07:42:52;1.92;;;1.45;;
52742;SDS011;55583;53.012;6.556;2023-05-10T07:45:18;2.05;;;1.15;;
52742;SDS011;55583;53.012;6.556;2023-05-10T07:47:43;1.65;;;1.45;;
52742;SDS011;55583;53.012;6.556;2023-05-10T07:50:09;4.13;;;1.73;;
52742;SDS011;55583;53.012;6.556;2023-05-10T07:52:35;1.75;;;1.65;;
52742;SDS011;55583;53.012;6.556;2023-05-10T07:55:01;2.30;;;2.10;;
52742;SDS011;55583;53.012;6.556;2023-05-10T07:57:26;2.13;;;1.95;;
52742;SDS011;55583;53.012;6.556;2023-05-10T07:59:52;2.58;;;2.10;;
52742;SDS011;55583;53.012;6.556;2023-05-10T08:02:17;2.17;;;1.98;;
52742;SDS011;55583;53.012;6.556;2023-05-10T08:04:43;3.70;;;2.10;;
52742;SDS011;55583;53.012;6.556;2023-05-10T08:07:09;2.22;;;2.03;;
52742;SDS011;55583;53.012;6.556;2023-05-10T08:09:35;2.67;;;2.25;;
52742;SDS011;55583;53.012;6.556;2023-05-10T08:12:01;2.45;;;2.00;;
52742;SDS011;55583;53.012;6.556;2023-05-10T08:14:27;1.88;;;1.77;;
52742;SDS011;55583;53.012;6.556;2023-05-10T08:16:54;4.50;;;2.03;;
52742;SDS011;55583;53.012;6.556;2023-05-10T08:19:20;2.70;;;2.08;;
52742;SDS011;55583;53.012;6.556;2023-05-10T08:21:46;1.92;;;1.73;;
52742;SDS011;55583;53.012;6.556;2023-05-10T08:24:12;1.88;;;1.77;;
52742;SDS011;55583;53.012;6.556;2023-05-10T08:26:40;2.03;;;1.88;;
52742;SDS011;55583;53.012;6.556;2023-05-10T08:29:06;2.40;;;2.13;;
52742;SDS011;55583;53.012;6.556;2023-05-10T08:31:32;2.85;;;2.20;;
52742;SDS011;55583;53.012;6.556;2023-05-10T08:33:57;3.78;;;2.53;;
52742;SDS011;55583;53.012;6.556;2023-05-10T08:36:23;2.55;;;2.05;;
52742;SDS011;55583;53.012;6.556;2023-05-10T08:38:52;5.00;;;2.50;;
52742;SDS011;55583;53.012;6.556;2023-05-10T08:41:22;2.70;;;2.50;;
52742;SDS011;55583;53.012;6.556;2023-05-10T08:43:53;2.67;;;2.30;;
52742;SDS011;55583;53.012;6.556;2023-05-10T08:46:19;2.80;;;2.60;;
52742;SDS011;55583;53.012;6.556;2023-05-10T08:48:48;2.90;;;2.70;;
52742;SDS011;55583;53.012;6.556;2023-05-10T08:51:17;2.85;;;2.55;;
52742;SDS011;55583;53.012;6.556;2023-05-10T08:53:46;3.28;;;2.97;;
52742;SDS011;55583;53.012;6.556;2023-05-10T08:56:12;3.97;;;2.83;;
52742;SDS011;55583;53.012;6.556;2023-05-10T08:58:38;2.80;;;2.35;;
52742;SDS011;55583;53.012;6.556;2023-05-10T09:01:04;2.58;;;2.35;;
52742;SDS011;55583;53.012;6.556;2023-05-10T09:03:30;3.33;;;3.00;;
52742;SDS011;55583;53.012;6.556;2023-05-10T09:05:57;4.45;;;2.30;;
52742;SDS011;55583;53.012;6.556;2023-05-10T09:08:23;4.30;;;3.13;;
52742;SDS011;55583;53.012;6.556;2023-05-10T09:10:53;2.85;;;2.65;;
52742;SDS011;55583;53.012;6.556;2023-05-10T09:13:22;2.92;;;2.70;;
52742;SDS011;55583;53.012;6.556;2023-05-10T09:15:48;3.47;;;3.17;;
52742;SDS011;55583;53.012;6.556;2023-05-10T09:18:14;5.22;;;3.05;;
52742;SDS011;55583;53.012;6.556;2023-05-10T09:20:40;4.25;;;3.33;;
52742;SDS011;55583;53.012;6.556;2023-05-10T09:23:06;5.15;;;4.00;;
52742;SDS011;55583;53.012;6.556;2023-05-10T09:25:32;9.48;;;4.82;;
52742;SDS011;55583;53.012;6.556;2023-05-10T09:28:00;6.15;;;4.40;;
52742;SDS011;55583;53.012;6.556;2023-05-10T09:30:27;6.15;;;4.93;;
52742;SDS011;55583;53.012;6.556;2023-05-10T09:32:55;7.45;;;5.30;;
52742;SDS011;55583;53.012;6.556;2023-05-10T09:35:23;8.75;;;5.25;;
52742;SDS011;55583;53.012;6.556;2023-05-10T09:37:51;6.68;;;5.13;;
52742;SDS011;55583;53.012;6.556;2023-05-10T09:40:21;5.22;;;4.43;;
52742;SDS011;55583;53.012;6.556;2023-05-10T09:45:17;5.40;;;4.75;;
52742;SDS011;55583;53.012;6.556;2023-05-10T09:47:42;8.23;;;5.05;;
52742;SDS011;55583;53.012;6.556;2023-05-10T09:50:09;8.02;;;4.72;;
52742;SDS011;55583;53.012;6.556;2023-05-10T09:52:54;5.32;;;4.80;;
52742;SDS011;55583;53.012;6.556;2023-05-10T09:55:23;8.82;;;5.07;;
52742;SDS011;55583;53.012;6.556;2023-05-10T09:58:14;5.63;;;5.03;;
52742;SDS011;55583;53.012;6.556;2023-05-10T10:00:41;10.82;;;6.63;;
52742;SDS011;55583;53.012;6.556;2023-05-10T10:03:18;6.78;;;5.40;;
52742;SDS011;55583;53.012;6.556;2023-05-10T10:05:45;8.15;;;5.70;;
52742;SDS011;55583;53.012;6.556;2023-05-10T10:08:12;6.88;;;5.78;;
52742;SDS011;55583;53.012;6.556;2023-05-10T10:10:38;12.38;;;6.68;;
52742;SDS011;55583;53.012;6.556;2023-05-10T10:15:37;7.93;;;5.90;;
52742;SDS011;55583;53.012;6.556;2023-05-10T10:18:03;8.85;;;6.45;;
52742;SDS011;55583;53.012;6.556;2023-05-10T10:20:30;7.82;;;6.47;;
52742;SDS011;55583;53.012;6.556;2023-05-10T10:22:55;13.07;;;6.90;;
52742;SDS011;55583;53.012;6.556;2023-05-10T10:25:21;6.78;;;5.85;;
52742;SDS011;55583;53.012;6.556;2023-05-10T10:36:07;10.13;;;5.82;;
52742;SDS011;55583;53.012;6.556;2023-05-10T10:39:15;9.07;;;6.70;;
52742;SDS011;55583;53.012;6.556;2023-05-10T10:41:31;9.05;;;5.90;;
52742;SDS011;55583;53.012;6.556;2023-05-10T10:44:33;9.05;;;5.97;;
52742;SDS011;55583;53.012;6.556;2023-05-10T10:52:32;9.15;;;5.60;;
52742;SDS011;55583;53.012;6.556;2023-05-10T10:55:10;9.00;;;6.10;;
52742;SDS011;55583;53.012;6.556;2023-05-10T11:02:45;9.85;;;6.55;;
52742;SDS011;55583;53.012;6.556;2023-05-10T11:08:28;7.65;;;6.00;;
52742;SDS011;55583;53.012;6.556;2023-05-10T11:13:34;9.85;;;6.72;;
52742;SDS011;55583;53.012;6.556;2023-05-10T11:16:13;6.90;;;5.22;;
52742;SDS011;55583;53.012;6.556;2023-05-10T11:18:40;9.80;;;6.00;;
52742;SDS011;55583;53.012;6.556;2023-05-10T11:21:17;7.75;;;5.80;;
52742;SDS011;55583;53.012;6.556;2023-05-10T11:26:08;10.43;;;7.00;;
52742;SDS011;55583;53.012;6.556;2023-05-10T11:28:41;7.55;;;5.68;;
52742;SDS011;55583;53.012;6.556;2023-05-10T11:31:15;16.30;;;6.38;;
52742;SDS011;55583;53.012;6.556;2023-05-10T11:33:45;7.57;;;5.70;;
52742;SDS011;55583;53.012;6.556;2023-05-10T11:36:19;11.05;;;5.57;;
52742;SDS011;55583;53.012;6.556;2023-05-10T11:39:05;9.60;;;5.40;;
52742;SDS011;55583;53.012;6.556;2023-05-10T11:41:31;8.82;;;5.32;;
52742;SDS011;55583;53.012;6.556;2023-05-10T11:43:57;8.20;;;5.57;;
52742;SDS011;55583;53.012;6.556;2023-05-10T11:46:24;8.27;;;4.72;;
52742;SDS011;55583;53.012;6.556;2023-05-10T11:48:55;8.02;;;5.18;;
52742;SDS011;55583;53.012;6.556;2023-05-10T11:51:25;11.35;;;5.85;;
52742;SDS011;55583;53.012;6.556;2023-05-10T11:53:52;6.75;;;5.57;;
52742;SDS011;55583;53.012;6.556;2023-05-10T11:56:19;5.88;;;4.90;;
52742;SDS011;55583;53.012;6.556;2023-05-10T11:58:51;6.75;;;5.97;;
52742;SDS011;55583;53.012;6.556;2023-05-10T12:01:21;12.38;;;6.35;;
52742;SDS011;55583;53.012;6.556;2023-05-10T12:03:48;8.25;;;6.00;;
52742;SDS011;55583;53.012;6.556;2023-05-10T12:06:15;10.43;;;6.63;;
52742;SDS011;55583;53.012;6.556;2023-05-10T12:08:43;12.45;;;6.63;;
52742;SDS011;55583;53.012;6.556;2023-05-10T12:11:11;9.35;;;5.75;;
52742;SDS011;55583;53.012;6.556;2023-05-10T12:13:42;8.07;;;6.63;;
52742;SDS011;55583;53.012;6.556;2023-05-10T12:16:18;10.77;;;7.05;;
52742;SDS011;55583;53.012;6.556;2023-05-10T12:18:49;11.52;;;7.35;;
52742;SDS011;55583;53.012;6.556;2023-05-10T12:21:19;9.57;;;7.32;;
52742;SDS011;55583;53.012;6.556;2023-05-10T12:23:46;11.40;;;6.82;;
52742;SDS011;55583;53.012;6.556;2023-05-10T12:26:16;8.27;;;6.55;;
52742;SDS011;55583;53.012;6.556;2023-05-10T12:28:42;10.85;;;7.82;;
52742;SDS011;55583;53.012;6.556;2023-05-10T12:31:08;9.55;;;6.40;;
52742;SDS011;55583;53.012;6.556;2023-05-10T12:33:41;10.45;;;6.45;;
52742;SDS011;55583;53.012;6.556;2023-05-10T12:36:08;9.70;;;7.50;;
52742;SDS011;55583;53.012;6.556;2023-05-10T12:38:36;9.30;;;7.15;;
52742;SDS011;55583;53.012;6.556;2023-05-10T12:43:35;13.57;;;8.10;;
52742;SDS011;55583;53.012;6.556;2023-05-10T12:46:08;9.70;;;7.25;;
52742;SDS011;55583;53.012;6.556;2023-05-10T12:48:38;10.32;;;7.30;;
52742;SDS011;55583;53.012;6.556;2023-05-10T12:51:05;10.40;;;8.00;;
52742;SDS011;55583;53.012;6.556;2023-05-10T12:53:34;10.52;;;7.28;;
52742;SDS011;55583;53.012;6.556;2023-05-10T12:56:00;13.15;;;7.53;;
52742;SDS011;55583;53.012;6.556;2023-05-10T12:58:26;11.10;;;7.32;;
52742;SDS011;55583;53.012;6.556;2023-05-10T13:00:52;12.82;;;8.15;;
52742;SDS011;55583;53.012;6.556;2023-05-10T13:03:17;13.20;;;7.90;;
52742;SDS011;55583;53.012;6.556;2023-05-10T13:05:43;11.35;;;7.10;;
52742;SDS011;55583;53.012;6.556;2023-05-10T13:08:09;10.90;;;8.20;;
52742;SDS011;55583;53.012;6.556;2023-05-10T13:10:35;15.05;;;7.82;;
52742;SDS011;55583;53.012;6.556;2023-05-10T13:13:00;9.13;;;7.40;;
52742;SDS011;55583;53.012;6.556;2023-05-10T13:15:26;10.15;;;7.40;;
52742;SDS011;55583;53.012;6.556;2023-05-10T13:17:52;12.85;;;7.85;;
52742;SDS011;55583;53.012;6.556;2023-05-10T13:20:19;11.13;;;6.53;;
52742;SDS011;55583;53.012;6.556;2023-05-10T13:22:44;11.77;;;7.20;;
52742;SDS011;55583;53.012;6.556;2023-05-10T13:25:10;10.90;;;7.80;;
52742;SDS011;55583;53.012;6.556;2023-05-10T13:27:37;11.18;;;7.80;;
52742;SDS011;55583;53.012;6.556;2023-05-10T13:30:04;13.95;;;8.07;;
52742;SDS011;55583;53.012;6.556;2023-05-10T13:32:30;11.05;;;7.72;;
52742;SDS011;55583;53.012;6.556;2023-05-10T13:34:55;10.80;;;7.63;;
52742;SDS011;55583;53.012;6.556;2023-05-10T13:37:21;14.68;;;8.55;;
52742;SDS011;55583;53.012;6.556;2023-05-10T13:39:47;9.93;;;7.78;;
52742;SDS011;55583;53.012;6.556;2023-05-10T13:42:13;11.27;;;8.25;;
52742;SDS011;55583;53.012;6.556;2023-05-10T13:44:39;8.25;;;6.97;;
52742;SDS011;55583;53.012;6.556;2023-05-10T13:47:05;10.63;;;7.13;;
52742;SDS011;55583;53.012;6.556;2023-05-10T13:49:34;10.55;;;7.88;;
52742;SDS011;55583;53.012;6.556;2023-05-10T13:51:59;11.25;;;7.88;;
52742;SDS011;55583;53.012;6.556;2023-05-10T13:54:32;12.87;;;8.00;;
52742;SDS011;55583;53.012;6.556;2023-05-10T13:57:01;9.77;;;7.47;;
52742;SDS011;55583;53.012;6.556;2023-05-10T13:59:26;10.43;;;8.00;;
52742;SDS011;55583;53.012;6.556;2023-05-10T14:01:52;11.82;;;8.02;;
52742;SDS011;55583;53.012;6.556;2023-05-10T14:04:18;8.50;;;7.38;;
52742;SDS011;55583;53.012;6.556;2023-05-10T14:06:43;11.88;;;8.10;;
52742;SDS011;55583;53.012;6.556;2023-05-10T14:09:09;12.18;;;8.00;;
52742;SDS011;55583;53.012;6.556;2023-05-10T14:11:35;10.23;;;8.25;;
52742;SDS011;55583;53.012;6.556;2023-05-10T14:14:00;10.77;;;8.60;;
52742;SDS011;55583;53.012;6.556;2023-05-10T14:16:26;13.02;;;7.80;;
52742;SDS011;55583;53.012;6.556;2023-05-10T14:18:52;12.13;;;7.75;;
52742;SDS011;55583;53.012;6.556;2023-05-10T14:21:18;10.20;;;7.10;;
52742;SDS011;55583;53.012;6.556;2023-05-10T14:23:43;11.18;;;6.90;;
52742;SDS011;55583;53.012;6.556;2023-05-10T14:26:09;10.15;;;7.18;;
52742;SDS011;55583;53.012;6.556;2023-05-10T14:28:34;11.05;;;6.72;;
52742;SDS011;55583;53.012;6.556;2023-05-10T14:31:00;10.07;;;7.05;;
52742;SDS011;55583;53.012;6.556;2023-05-10T14:33:26;7.72;;;6.57;;
52742;SDS011;55583;53.012;6.556;2023-05-10T14:35:53;10.57;;;7.65;;
52742;SDS011;55583;53.012;6.556;2023-05-10T14:38:21;12.20;;;7.78;;
52742;SDS011;55583;53.012;6.556;2023-05-10T14:40:47;9.27;;;7.10;;
52742;SDS011;55583;53.012;6.556;2023-05-10T14:43:13;9.25;;;7.22;;
52742;SDS011;55583;53.012;6.556;2023-05-10T14:45:38;10.82;;;7.40;;
52742;SDS011;55583;53.012;6.556;2023-05-10T14:48:04;14.48;;;8.02;;
52742;SDS011;55583;53.012;6.556;2023-05-10T14:50:30;13.75;;;7.25;;
52742;SDS011;55583;53.012;6.556;2023-05-10T14:52:56;11.00;;;7.50;;
52742;SDS011;55583;53.012;6.556;2023-05-10T14:55:24;11.77;;;7.15;;
52742;SDS011;55583;53.012;6.556;2023-05-10T14:57:49;9.52;;;7.00;;
52742;SDS011;55583;53.012;6.556;2023-05-10T15:00:15;9.25;;;6.57;;
52742;SDS011;55583;53.012;6.556;2023-05-10T15:02:41;13.07;;;7.75;;
52742;SDS011;55583;53.012;6.556;2023-05-10T15:05:07;9.30;;;7.07;;
52742;SDS011;55583;53.012;6.556;2023-05-10T15:07:33;11.85;;;6.65;;
52742;SDS011;55583;53.012;6.556;2023-05-10T15:10:03;11.10;;;5.93;;
52742;SDS011;55583;53.012;6.556;2023-05-10T15:12:29;6.60;;;4.65;;
52742;SDS011;55583;53.012;6.556;2023-05-10T15:14:54;7.55;;;4.25;;
52742;SDS011;55583;53.012;6.556;2023-05-10T15:17:20;4.38;;;3.97;;
52742;SDS011;55583;53.012;6.556;2023-05-10T15:19:46;9.52;;;4.13;;
52742;SDS011;55583;53.012;6.556;2023-05-10T15:22:11;7.13;;;4.35;;
52742;SDS011;55583;53.012;6.556;2023-05-10T15:24:37;6.13;;;4.20;;
52742;SDS011;55583;53.012;6.556;2023-05-10T15:27:03;7.22;;;4.55;;